Majesty of the Seas — C6FZ8 — position and weather

sailwx.info

Track history (hours):
 
Tides and Currents Weather Stations Pressure Air Temp Water Temp Dewpoint Dewpoint Depression Visibility Wind Speed Wind Dir Waves Ship Positions

Majesty of the Seas (Bahamas)

Last reported at 2015-Aug-31 10:33 UTC. Time now 2015-Aug-31 10:50 UTC.
Position N 25°47' W 080°11'.

Length 268 m; draft 7.7 m.

Type: Passenger vessel. MMSI: 311734000.

Date/timePositionNaut miles runAvg speedWind from/ knotsBaromVisibWave heightAir tempDewpointWater temp
2015-Aug-31 10:33N 25°47' W 080°11'6 6.3
2015-Aug-31 09:33N 25°46' W 080°04'1211.5
2015-Aug-31 08:34N 25°51' W 079°52'1111.1
2015-Aug-31 07:33N 25°56' W 079°41'1111.4
2015-Aug-31 06:34N 26°01' W 079°29'1627.7
2015-Aug-31 06:00N 26°00' W 079°12'815.5 130 / 81016.010.8 0.527.024.330.0
2015-Aug-31 05:29N 26°08' W 079°12'2215.7
2015-Aug-31 04:04N 26°07' W 078°48'915.9
2015-Aug-31 03:32N 26°05' W 078°39'64 3.0
2015-Aug-30 06:00N 25°48' W 077°30'114 4.5 120 / 251015.010.8 3.029.026.330.0
2015-Aug-29 04:34N 26°02' W 079°36'8 8.4
2015-Aug-29 03:34N 25°57' W 079°44'9 8.6
2015-Aug-29 02:34N 25°53' W 079°52'8 8.4
2015-Aug-29 01:34N 25°49' W 079°60'8 8.2
2015-Aug-29 00:34N 25°46' W 080°09'2 1.9
2015-Aug-28 23:31N 25°47' W 080°11'0 0.0
2015-Aug-28 22:31N 25°47' W 080°11'0 0.0
2015-Aug-28 21:31N 25°47' W 080°11'0 0.0
2015-Aug-28 20:31N 25°47' W 080°11'0 0.0
2015-Aug-28 19:31N 25°47' W 080°11'0 0.0
2015-Aug-28 18:31N 25°47' W 080°11'0 0.0
2015-Aug-28 17:31N 25°47' W 080°11'0 0.0
2015-Aug-28 16:31N 25°47' W 080°11'0 0.0
2015-Aug-28 15:31N 25°47' W 080°11'0 0.0
2015-Aug-28 14:31N 25°47' W 080°11'0 0.0
2015-Aug-28 13:31N 25°47' W 080°11'0 0.0
2015-Aug-28 12:31N 25°47' W 080°11'0 0.0
2015-Aug-28 11:31N 25°47' W 080°11'0 0.0
2015-Aug-28 10:31N 25°47' W 080°11'0 0.0
2015-Aug-28 09:34N 25°47' W 080°11'6 5.9
2015-Aug-28 08:34N 25°46' W 080°04'1313.2
2015-Aug-28 07:34N 25°38' W 079°53'1615.8
2015-Aug-28 06:33N 25°22' W 079°53'3416.7
2015-Aug-28 04:33N 24°52' W 080°10'8 0.4
2015-Aug-27 06:00N 24°54' W 080°18'5114.6 110 / 121014.010.8 1.027.024.330.0
2015-Aug-27 02:28N 25°35' W 079°43'1715.2
2015-Aug-27 01:20N 25°47' W 079°30'1316.3
2015-Aug-27 00:33N 25°57' W 079°21'115 6.2
2015-Aug-26 06:00N 25°24' W 077°18'37 1.5 150 / 191013.027.0 27.024.330.0
2015-Aug-25 06:00N 25°54' W 077°42'9614.6 150 / 91013.027.0 29.026.331.0
2015-Aug-24 23:25N 26°01' W 079°28'1214.6
2015-Aug-24 22:34N 25°56' W 079°41'1414.4
2015-Aug-24 21:34N 25°50' W 079°55'1211.9
2015-Aug-24 20:33N 25°46' W 080°08'3 2.8
2015-Aug-24 19:31N 25°47' W 080°11'0 0.0
2015-Aug-24 18:31N 25°47' W 080°11'0 0.0
2015-Aug-24 17:31N 25°47' W 080°11'0 0.0
2015-Aug-24 16:31N 25°47' W 080°11'0 0.0
2015-Aug-24 15:31N 25°47' W 080°11'0 0.0
2015-Aug-24 14:31N 25°47' W 080°11'0 0.0
2015-Aug-24 13:31N 25°47' W 080°11'0 0.0
2015-Aug-24 12:31N 25°47' W 080°11'0 0.0
2015-Aug-24 11:31N 25°47' W 080°11'0 0.0
2015-Aug-24 10:29N 25°47' W 080°11'6 6.8
2015-Aug-24 09:34N 25°46' W 080°04'1110.9
2015-Aug-24 08:33N 25°50' W 079°52'1110.8
2015-Aug-24 07:33N 25°56' W 079°42'1515.0
2015-Aug-24 06:33N 26°02' W 079°27'1424.5
2015-Aug-24 06:00N 26°06' W 079°12'711.0 070 / 101014.027.0 28.025.330.0
2015-Aug-24 05:20N 26°10' W 079°05'9016.8
2015-Aug-24 00:00N 25°42' W 077°30'32 1.8 030 / 131012.0 30.024.6
2015-Aug-23 06:00N 25°12' W 077°18'93 3.9 030 / 21014.027.0 0.527.024.330.0
2015-Aug-22 06:00N 26°06' W 078°42'43 8.6 060 / 71015.027.0 1.028.023.930.0
2015-Aug-22 01:03N 26°06' W 079°30'5 9.9
2015-Aug-22 00:33N 26°03' W 079°34'3 5.9
2015-Aug-22 00:00N 26°00' W 079°36'715.9 020 / 31015.0 5.4 30.0 27.0
2015-Aug-21 23:33N 25°58' W 079°43'10 9.8
2015-Aug-21 22:33N 25°53' W 079°53'10 9.7
2015-Aug-21 21:33N 25°47' W 080°02'8 8.1
2015-Aug-21 20:33N 25°47' W 080°11'0 0.0
2015-Aug-21 19:33N 25°47' W 080°11'0 0.0
2015-Aug-21 18:33N 25°47' W 080°11'0 0.0
2015-Aug-21 17:33N 25°47' W 080°11'0 0.0
2015-Aug-21 16:33N 25°47' W 080°11'0 0.0
2015-Aug-21 15:33N 25°47' W 080°11'0 0.0
2015-Aug-21 14:33N 25°47' W 080°11'0 0.0
2015-Aug-21 13:24N 25°47' W 080°11'0 0.0
2015-Aug-21 12:33N 25°47' W 080°11'0 0.0
2015-Aug-21 11:33N 25°47' W 080°11'  
Track history (hours):
 
Tides and Currents Weather Stations Pressure Air Temp Water Temp Dewpoint Dewpoint Depression Visibility Wind Speed Wind Dir Waves Ship Positions

Majesty of the Seas (Bahamas)

Last reported at 2015-Aug-31 10:33 UTC. Time now 2015-Aug-31 10:50 UTC.
Position N 25°47' W 080°11'.

Length 268 m; draft 7.7 m.

Type: Passenger vessel. MMSI: 311734000.

Date/timePositionNaut miles runAvg speedWind from/ knotsBaromVisibWave heightAir tempDewpointWater temp
2015-Aug-31 10:33N 25°47' W 080°11'6 6.3
2015-Aug-31 09:33N 25°46' W 080°04'1211.5
2015-Aug-31 08:34N 25°51' W 079°52'1111.1
2015-Aug-31 07:33N 25°56' W 079°41'1111.4
2015-Aug-31 06:34N 26°01' W 079°29'1627.7
2015-Aug-31 06:00N 26°00' W 079°12'815.5 130 / 81016.010.8 0.527.024.330.0
2015-Aug-31 05:29N 26°08' W 079°12'2215.7
2015-Aug-31 04:04N 26°07' W 078°48'915.9
2015-Aug-31 03:32N 26°05' W 078°39'64 3.0
2015-Aug-30 06:00N 25°48' W 077°30'114 4.5 120 / 251015.010.8 3.029.026.330.0
2015-Aug-29 04:34N 26°02' W 079°36'8 8.4
2015-Aug-29 03:34N 25°57' W 079°44'9 8.6
2015-Aug-29 02:34N 25°53' W 079°52'8 8.4
2015-Aug-29 01:34N 25°49' W 079°60'8 8.2
2015-Aug-29 00:34N 25°46' W 080°09'2 1.9
2015-Aug-28 23:31N 25°47' W 080°11'0 0.0
2015-Aug-28 22:31N 25°47' W 080°11'0 0.0
2015-Aug-28 21:31N 25°47' W 080°11'0 0.0
2015-Aug-28 20:31N 25°47' W 080°11'0 0.0
2015-Aug-28 19:31N 25°47' W 080°11'0 0.0
2015-Aug-28 18:31N 25°47' W 080°11'0 0.0
2015-Aug-28 17:31N 25°47' W 080°11'0 0.0
2015-Aug-28 16:31N 25°47' W 080°11'0 0.0
2015-Aug-28 15:31N 25°47' W 080°11'0 0.0
2015-Aug-28 14:31N 25°47' W 080°11'0 0.0
2015-Aug-28 13:31N 25°47' W 080°11'0 0.0
2015-Aug-28 12:31N 25°47' W 080°11'0 0.0
2015-Aug-28 11:31N 25°47' W 080°11'0 0.0
2015-Aug-28 10:31N 25°47' W 080°11'0 0.0
2015-Aug-28 09:34N 25°47' W 080°11'6 5.9
2015-Aug-28 08:34N 25°46' W 080°04'1313.2
2015-Aug-28 07:34N 25°38' W 079°53'1615.8
2015-Aug-28 06:33N 25°22' W 079°53'3416.7
2015-Aug-28 04:33N 24°52' W 080°10'8 0.4
2015-Aug-27 06:00N 24°54' W 080°18'5114.6 110 / 121014.010.8 1.027.024.330.0
2015-Aug-27 02:28N 25°35' W 079°43'1715.2
2015-Aug-27 01:20N 25°47' W 079°30'1316.3
2015-Aug-27 00:33N 25°57' W 079°21'115 6.2
2015-Aug-26 06:00N 25°24' W 077°18'37 1.5 150 / 191013.027.0 27.024.330.0
2015-Aug-25 06:00N 25°54' W 077°42'9614.6 150 / 91013.027.0 29.026.331.0
2015-Aug-24 23:25N 26°01' W 079°28'1214.6
2015-Aug-24 22:34N 25°56' W 079°41'1414.4
2015-Aug-24 21:34N 25°50' W 079°55'1211.9
2015-Aug-24 20:33N 25°46' W 080°08'3 2.8
2015-Aug-24 19:31N 25°47' W 080°11'0 0.0
2015-Aug-24 18:31N 25°47' W 080°11'0 0.0
2015-Aug-24 17:31N 25°47' W 080°11'0 0.0
2015-Aug-24 16:31N 25°47' W 080°11'0 0.0
2015-Aug-24 15:31N 25°47' W 080°11'0 0.0
2015-Aug-24 14:31N 25°47' W 080°11'0 0.0
2015-Aug-24 13:31N 25°47' W 080°11'0 0.0
2015-Aug-24 12:31N 25°47' W 080°11'0 0.0
2015-Aug-24 11:31N 25°47' W 080°11'0 0.0
2015-Aug-24 10:29N 25°47' W 080°11'6 6.8
2015-Aug-24 09:34N 25°46' W 080°04'1110.9
2015-Aug-24 08:33N 25°50' W 079°52'1110.8
2015-Aug-24 07:33N 25°56' W 079°42'1515.0
2015-Aug-24 06:33N 26°02' W 079°27'1424.5
2015-Aug-24 06:00N 26°06' W 079°12'711.0 070 / 101014.027.0 28.025.330.0
2015-Aug-24 05:20N 26°10' W 079°05'9016.8
2015-Aug-24 00:00N 25°42' W 077°30'32 1.8 030 / 131012.0 30.024.6
2015-Aug-23 06:00N 25°12' W 077°18'93 3.9 030 / 21014.027.0 0.527.024.330.0
2015-Aug-22 06:00N 26°06' W 078°42'43 8.6 060 / 71015.027.0 1.028.023.930.0
2015-Aug-22 01:03N 26°06' W 079°30'5 9.9
2015-Aug-22 00:33N 26°03' W 079°34'3 5.9
2015-Aug-22 00:00N 26°00' W 079°36'715.9 020 / 31015.0 5.4 30.0 27.0
2015-Aug-21 23:33N 25°58' W 079°43'10 9.8
2015-Aug-21 22:33N 25°53' W 079°53'10 9.7
2015-Aug-21 21:33N 25°47' W 080°02'8 8.1
2015-Aug-21 20:33N 25°47' W 080°11'0 0.0
2015-Aug-21 19:33N 25°47' W 080°11'0 0.0
2015-Aug-21 18:33N 25°47' W 080°11'0 0.0
2015-Aug-21 17:33N 25°47' W 080°11'0 0.0
2015-Aug-21 16:33N 25°47' W 080°11'0 0.0
2015-Aug-21 15:33N 25°47' W 080°11'0 0.0
2015-Aug-21 14:33N 25°47' W 080°11'0 0.0
2015-Aug-21 13:24N 25°47' W 080°11'0 0.0
2015-Aug-21 12:33N 25°47' W 080°11'0 0.0
2015-Aug-21 11:33N 25°47' W 080°11'  

Dump ship's entire track history